Crest Voyager — 3EBB8 — position and weather

sailwx.info

Track history (hours):
 
Tides and Currents Weather Stations Pressure Air Temp Water Temp Dewpoint Dewpoint Depression Visibility Wind Speed Wind Dir Waves Ship Positions

Crest Voyager

Last reported at 2017-Mar-23 16:27 UTC. Time now 2017-Mar-26 19:09 UTC.
Position S 33°30' E 032°13'.

Length 292 m; draft 18.5 m.

Type: Cargo ship. MMSI: 374835000.

Date/timePositionNaut miles runAvg speedWind from/ knotsBaromVisibWave heightAir tempDewpointWater temp
2017-Mar-23 16:27S 33°30' E 032°13'910.2
2017-Mar-23 15:33S 33°31' E 032°03'1010.1
2017-Mar-23 14:33S 33°32' E 031°50'10 9.9
2017-Mar-23 13:33S 33°33' E 031°39'11 9.7
2017-Mar-23 12:24S 33°35' E 031°25'30 9.5
2017-Mar-23 09:16S 33°38' E 030°50'7 9.4
2017-Mar-23 08:29S 33°39' E 030°41'27 9.1
2017-Mar-23 05:33S 33°42' E 030°09'60 9.5
2017-Mar-22 23:17S 33°49' E 028°58'  
2017-Mar-20 17:30S 34°40' E 018°54'19 9.3
2017-Mar-20 15:31S 34°32' E 018°34'53 8.4
2017-Mar-20 09:08S 33°60' E 017°42'6 9.5
2017-Mar-20 08:28S 33°55' E 017°38'9 9.8
2017-Mar-20 07:33S 33°48' E 017°31'1010.0
2017-Mar-20 06:33S 33°39' E 017°24'2510.2
2017-Mar-20 04:04S 33°19' E 017°07'510.3
2017-Mar-20 03:33S 33°15' E 017°03'1010.2
2017-Mar-20 02:33S 33°07' E 016°56'10 9.7
2017-Mar-20 01:33S 32°59' E 016°48'  
Track history (hours):
 
Tides and Currents Weather Stations Pressure Air Temp Water Temp Dewpoint Dewpoint Depression Visibility Wind Speed Wind Dir Waves Ship Positions

Crest Voyager

Last reported at 2017-Mar-23 16:27 UTC. Time now 2017-Mar-26 19:09 UTC.
Position S 33°30' E 032°13'.

Length 292 m; draft 18.5 m.

Type: Cargo ship. MMSI: 374835000.

Date/timePositionNaut miles runAvg speedWind from/ knotsBaromVisibWave heightAir tempDewpointWater temp
2017-Mar-23 16:27S 33°30' E 032°13'910.2
2017-Mar-23 15:33S 33°31' E 032°03'1010.1
2017-Mar-23 14:33S 33°32' E 031°50'10 9.9
2017-Mar-23 13:33S 33°33' E 031°39'11 9.7
2017-Mar-23 12:24S 33°35' E 031°25'30 9.5
2017-Mar-23 09:16S 33°38' E 030°50'7 9.4
2017-Mar-23 08:29S 33°39' E 030°41'27 9.1
2017-Mar-23 05:33S 33°42' E 030°09'60 9.5
2017-Mar-22 23:17S 33°49' E 028°58'  
2017-Mar-20 17:30S 34°40' E 018°54'19 9.3
2017-Mar-20 15:31S 34°32' E 018°34'53 8.4
2017-Mar-20 09:08S 33°60' E 017°42'6 9.5
2017-Mar-20 08:28S 33°55' E 017°38'9 9.8
2017-Mar-20 07:33S 33°48' E 017°31'1010.0
2017-Mar-20 06:33S 33°39' E 017°24'2510.2
2017-Mar-20 04:04S 33°19' E 017°07'510.3
2017-Mar-20 03:33S 33°15' E 017°03'1010.2
2017-Mar-20 02:33S 33°07' E 016°56'10 9.7
2017-Mar-20 01:33S 32°59' E 016°48'  

Dump ship's entire track history